Time;durP1;ratioP1;P1;durP2;ratioP2;P2;SDS_P1;SDS_P2;PMS_P1;PMS_P2;Temp;Humidity;BMP_temperature;BMP_pressure;BME280_temperature;BME280_humidity;BME280_pressure;Samples;Min_cycle;Max_cycle;Signal;HPM_P1;HPM_P2
2021/09/29 00:00:25;;;;;;;6.93;4.00;;;;;;;11.24;100.00;96090.53;4995981;28;24467;-79
2021/09/29 00:02:52;;;;;;;9.38;4.13;;;;;;;11.11;100.00;96091.25;4997939;28;24492;-79
2021/09/29 00:05:18;;;;;;;8.63;4.13;;;;;;;11.08;100.00;96096.63;4995129;28;24432;-79
2021/09/29 00:07:45;;;;;;;6.45;4.03;;;;;;;11.07;100.00;96096.72;4994922;28;24997;-79
2021/09/29 00:10:12;;;;;;;4.80;4.00;;;;;;;11.11;100.00;96088.66;4994898;28;24417;-79
2021/09/29 00:12:41;;;;;;;5.13;4.30;;;;;;;11.11;100.00;96085.25;4995202;28;24966;-79
2021/09/29 00:15:13;;;;;;;5.90;4.00;;;;;;;11.18;100.00;96083.94;4995006;28;24420;-78
2021/09/29 00:17:40;;;;;;;5.27;3.87;;;;;;;11.14;100.00;96085.91;4995080;28;24623;-79
2021/09/29 00:20:07;;;;;;;5.50;4.18;;;;;;;11.10;100.00;96089.59;4995027;28;24830;-79
2021/09/29 00:22:34;;;;;;;7.20;4.77;;;;;;;11.01;100.00;96086.72;4994869;28;24510;-78
2021/09/29 00:25:00;;;;;;;8.93;4.70;;;;;;;10.90;100.00;96084.75;4994779;28;24830;-79
2021/09/29 00:27:27;;;;;;;7.45;4.25;;;;;;;10.99;100.00;96080.78;4994841;28;24887;-79
2021/09/29 00:29:59;;;;;;;10.30;4.70;;;;;;;10.84;100.00;96074.75;4994596;28;24973;-79
2021/09/29 00:32:25;;;;;;;5.57;4.63;;;;;;;10.93;100.00;96075.97;4998357;28;24432;-79
2021/09/29 00:34:52;;;;;;;6.70;4.77;;;;;;;11.05;100.00;96077.81;4997973;28;24795;-79
2021/09/29 00:37:18;;;;;;;5.00;3.95;;;;;;;11.14;100.00;96072.94;4997840;28;24941;-78
2021/09/29 00:39:45;;;;;;;5.78;4.43;;;;;;;11.24;100.00;96083.59;4996359;28;24436;-77
2021/09/29 00:42:11;;;;;;;6.25;4.20;;;;;;;11.26;100.00;96081.72;4995418;28;24973;-77
2021/09/29 00:44:38;;;;;;;4.50;4.03;;;;;;;11.23;100.00;96079.31;4995271;28;24424;-77
2021/09/29 00:47:06;;;;;;;6.60;4.43;;;;;;;11.25;100.00;96074.06;4995716;28;24427;-77
2021/09/29 00:49:32;;;;;;;6.68;4.78;;;;;;;11.24;100.00;96078.41;4995633;28;24433;-77
2021/09/29 00:51:59;;;;;;;5.32;4.18;;;;;;;11.28;100.00;96085.06;4995222;28;24444;-77
2021/09/29 00:54:28;;;;;;;5.90;3.80;;;;;;;11.26;100.00;96070.53;4995487;28;24939;-77
2021/09/29 00:56:55;;;;;;;5.13;3.92;;;;;;;11.11;100.00;96077.47;4995290;28;24535;-77
2021/09/29 00:59:22;;;;;;;4.60;3.70;;;;;;;10.76;100.00;96077.81;4995196;28;24483;-77
2021/09/29 01:01:48;;;;;;;5.65;3.97;;;;;;;10.36;100.00;96082.69;4995038;28;24424;-77
2021/09/29 01:04:17;;;;;;;8.75;4.65;;;;;;;10.26;100.00;96081.53;4995257;28;24425;-77
2021/09/29 01:06:48;;;;;;;6.32;4.35;;;;;;;10.45;100.00;96070.97;4994559;28;24408;-77
2021/09/29 01:09:19;;;;;;;8.07;4.80;;;;;;;10.32;100.00;96083.78;4995270;28;24435;-77
2021/09/29 01:11:57;;;;;;;7.65;4.60;;;;;;;10.39;100.00;96077.34;4994930;28;24428;-77
2021/09/29 01:14:27;;;;;;;8.13;4.47;;;;;;;10.56;100.00;96067.75;4994763;28;24957;-77
2021/09/29 01:16:58;;;;;;;6.67;4.77;;;;;;;10.52;100.00;96069.69;4994576;28;24464;-77
2021/09/29 01:19:44;;;;;;;6.05;4.10;;;;;;;10.53;100.00;96060.16;4995028;28;24453;-77
2021/09/29 01:22:19;;;;;;;5.28;4.30;;;;;;;10.37;100.00;96070.56;4994763;28;24440;-77
2021/09/29 01:24:52;;;;;;;5.93;4.55;;;;;;;10.45;100.00;96070.13;4994210;28;24413;-77
2021/09/29 01:27:23;;;;;;;6.13;4.13;;;;;;;10.50;100.00;96065.53;4994476;28;24471;-77
2021/09/29 01:29:51;;;;;;;6.03;4.10;;;;;;;10.53;100.00;96063.59;4994412;28;24962;-77
2021/09/29 01:32:19;;;;;;;6.85;4.28;;;;;;;10.53;100.00;96066.19;4994504;28;24842;-77
2021/09/29 01:34:47;;;;;;;8.55;4.50;;;;;;;10.48;100.00;96077.72;4994686;28;24834;-77
2021/09/29 01:37:14;;;;;;;5.60;4.22;;;;;;;10.52;100.00;96068.84;4994267;28;24441;-77
2021/09/29 01:39:41;;;;;;;9.65;4.38;;;;;;;10.56;100.00;96067.75;4994476;28;24768;-77
2021/09/29 01:42:08;;;;;;;4.93;4.13;;;;;;;10.55;100.00;96059.16;4992779;28;24799;-77
2021/09/29 01:44:36;;;;;;;5.03;4.00;;;;;;;10.53;100.00;96062.75;4993890;28;24424;-77
2021/09/29 01:47:04;;;;;;;7.50;4.28;;;;;;;10.42;100.00;96060.81;4994560;28;24456;-77
2021/09/29 01:49:35;;;;;;;5.87;4.70;;;;;;;10.30;100.00;96067.50;4994500;28;24417;-77
2021/09/29 01:52:04;;;;;;;6.50;4.47;;;;;;;10.18;100.00;96069.00;4996687;28;24850;-77
2021/09/29 01:54:31;;;;;;;8.50;5.38;;;;;;;10.28;100.00;96073.69;4996261;28;24421;-77
2021/09/29 01:56:58;;;;;;;5.43;4.28;;;;;;;10.29;100.00;96073.59;4994624;28;24452;-77
2021/09/29 01:59:25;;;;;;;6.10;4.38;;;;;;;10.23;100.00;96068.72;4994193;28;24966;-77
2021/09/29 02:01:54;;;;;;;8.02;4.57;;;;;;;10.14;100.00;96061.50;4994225;28;24432;-77
2021/09/29 02:04:21;;;;;;;4.63;4.13;;;;;;;10.28;100.00;96064.19;4994546;28;24521;-79
2021/09/29 02:06:49;;;;;;;8.90;4.35;;;;;;;10.27;100.00;96079.78;4997866;28;24934;-79
2021/09/29 02:09:16;;;;;;;9.17;4.90;;;;;;;10.24;100.00;96072.19;4997982;28;24474;-79
2021/09/29 02:11:44;;;;;;;5.00;4.20;;;;;;;10.12;100.00;96073.69;4997878;28;24456;-78
2021/09/29 02:14:10;;;;;;;5.28;4.78;;;;;;;10.00;100.00;96066.59;4997808;28;24425;-78
2021/09/29 02:16:37;;;;;;;5.38;4.43;;;;;;;10.05;100.00;96074.94;4996208;28;24456;-79
2021/09/29 02:19:04;;;;;;;7.63;5.07;;;;;;;10.01;100.00;96069.13;4996996;28;24432;-78
2021/09/29 02:21:31;;;;;;;5.85;4.50;;;;;;;9.93;100.00;96074.69;4996820;28;24432;-78
2021/09/29 02:23:58;;;;;;;6.60;4.43;;;;;;;10.02;100.00;96077.72;4996434;28;24969;-79
2021/09/29 02:26:24;;;;;;;7.22;4.38;;;;;;;10.01;100.00;96083.78;4996042;28;24416;-79
2021/09/29 02:28:51;;;;;;;12.65;5.20;;;;;;;9.99;100.00;96072.72;4995908;28;24774;-79
2021/09/29 02:31:17;;;;;;;6.03;4.53;;;;;;;10.04;100.00;96081.03;4996387;28;24444;-77
2021/09/29 02:33:44;;;;;;;5.25;4.47;;;;;;;10.23;100.00;96083.44;4995430;28;24433;-79
2021/09/29 02:36:11;;;;;;;5.07;4.35;;;;;;;10.36;100.00;96082.69;4995008;28;24417;-78
2021/09/29 02:38:38;;;;;;;5.65;3.85;;;;;;;10.46;100.00;96080.41;4995721;28;24421;-78
2021/09/29 02:41:05;;;;;;;5.90;4.47;;;;;;;10.49;100.00;96079.38;4995405;28;24452;-78
2021/09/29 02:43:31;;;;;;;9.25;4.10;;;;;;;10.55;100.00;96090.22;4993259;28;24421;-78
2021/09/29 02:45:58;;;;;;;4.70;4.00;;;;;;;10.35;100.00;96090.56;4992759;28;24429;-79
2021/09/29 02:48:25;;;;;;;13.70;5.38;;;;;;;10.06;100.00;96100.75;4992996;28;24425;-78
2021/09/29 02:50:51;;;;;;;5.90;4.27;;;;;;;10.09;100.00;96094.56;4992772;28;24523;-79
2021/09/29 02:53:19;;;;;;;9.15;4.40;;;;;;;10.01;100.00;96104.50;4992439;28;24815;-79
2021/09/29 02:55:46;;;;;;;4.70;4.00;;;;;;;10.17;100.00;96100.97;4992821;28;24483;-78
2021/09/29 02:58:12;;;;;;;4.53;4.00;;;;;;;10.16;100.00;96103.66;4992550;28;24445;-79
2021/09/29 03:00:39;;;;;;;5.65;4.10;;;;;;;10.01;100.00;96107.94;4991903;28;24437;-78
2021/09/29 03:03:05;;;;;;;7.30;4.75;;;;;;;9.82;100.00;96109.84;4992310;28;24436;-79
2021/09/29 03:05:32;;;;;;;5.95;4.30;;;;;;;9.83;100.00;96111.53;4992135;28;24847;-78
2021/09/29 03:07:58;;;;;;;9.35;4.75;;;;;;;9.94;100.00;96106.59;4992310;28;24436;-79
2021/09/29 03:10:26;;;;;;;6.20;3.95;;;;;;;10.01;100.00;96107.06;4992163;28;24502;-78
2021/09/29 03:12:52;;;;;;;5.15;4.25;;;;;;;9.99;100.00;96112.34;4992347;28;24798;-79
2021/09/29 03:15:19;;;;;;;6.07;4.40;;;;;;;9.96;100.00;96103.91;4991649;28;24487;-78
2021/09/29 03:17:45;;;;;;;7.43;4.45;;;;;;;9.94;100.00;96111.78;4991575;28;24460;-78
2021/09/29 03:20:12;;;;;;;5.55;3.97;;;;;;;10.02;100.00;96111.38;4992395;28;24417;-78
2021/09/29 03:22:39;;;;;;;4.85;4.18;;;;;;;10.05;100.00;96119.78;4991782;28;24440;-78
2021/09/29 03:25:06;;;;;;;6.18;4.07;;;;;;;10.05;100.00;96113.75;4991822;28;24444;-78
2021/09/29 03:27:33;;;;;;;9.07;4.07;;;;;;;10.03;100.00;96110.44;4993103;28;24429;-78
2021/09/29 03:30:00;;;;;;;5.63;4.30;;;;;;;10.08;100.00;96116.19;4995623;28;24432;-77
2021/09/29 03:32:26;;;;;;;7.40;3.67;;;;;;;10.22;100.00;96115.41;4995567;28;24479;-77
2021/09/29 03:34:54;;;;;;;4.05;3.63;;;;;;;10.26;100.00;96112.59;4994744;28;21267;-77
2021/09/29 03:37:21;;;;;;;5.90;3.50;;;;;;;10.38;100.00;96124.88;4992800;28;24444;-77
2021/09/29 03:39:47;;;;;;;4.35;3.28;;;;;;;10.46;100.00;96126.19;4993053;28;24428;-77
2021/09/29 03:42:14;;;;;;;8.03;3.63;;;;;;;10.56;100.00;96120.38;4994696;28;24451;-77
2021/09/29 03:44:41;;;;;;;5.32;3.92;;;;;;;10.58;100.00;96126.31;4995141;28;24444;-77
2021/09/29 03:47:08;;;;;;;4.70;3.83;;;;;;;10.64;100.00;96131.16;4996878;28;24432;-77
2021/09/29 03:49:34;;;;;;;5.50;3.67;;;;;;;10.69;100.00;96130.91;4993325;28;24791;-79
2021/09/29 03:52:01;;;;;;;5.00;3.78;;;;;;;10.60;100.00;96134.81;5002131;28;24437;-79
2021/09/29 03:54:27;;;;;;;5.18;3.42;;;;;;;10.64;100.00;96127.72;4995033;28;24441;-78
2021/09/29 03:56:54;;;;;;;5.05;3.78;;;;;;;10.72;100.00;96142.84;5001381;28;24572;-78
2021/09/29 03:59:20;;;;;;;4.53;3.28;;;;;;;10.70;100.00;96145.50;4995713;28;24444;-79
2021/09/29 04:01:48;;;;;;;5.63;3.70;;;;;;;10.71;100.00;96126.44;4994446;28;24440;-79
2021/09/29 04:04:14;;;;;;;4.97;3.60;;;;;;;10.77;100.00;96131.28;4994511;28;24420;-78
2021/09/29 04:06:41;;;;;;;4.55;3.35;;;;;;;10.78;100.00;96130.34;4994551;28;24467;-79
2021/09/29 04:09:07;;;;;;;4.68;3.92;;;;;;;10.78;100.00;96132.09;5001892;28;24440;-79
2021/09/29 04:11:34;;;;;;;3.97;3.30;;;;;;;10.77;100.00;96133.88;4986131;28;24437;-79
2021/09/29 04:14:01;;;;;;;4.93;3.75;;;;;;;10.79;100.00;96139.81;4994091;28;24444;-79
2021/09/29 04:16:27;;;;;;;5.03;3.60;;;;;;;10.82;100.00;96137.03;4996149;28;24501;-79
2021/09/29 04:18:56;;;;;;;8.45;3.92;;;;;;;10.80;100.00;96144.06;4996515;28;24818;-79
2021/09/29 04:21:22;;;;;;;4.97;3.47;;;;;;;10.65;100.00;96139.75;4995809;28;25104;-79
2021/09/29 04:23:49;;;;;;;5.07;3.67;;;;;;;10.71;100.00;96149.75;4996105;28;24480;-79
2021/09/29 04:26:16;;;;;;;4.53;3.40;;;;;;;10.79;100.00;96150.19;4995888;28;24475;-79
2021/09/29 04:28:42;;;;;;;4.38;3.22;;;;;;;10.70;100.00;96149.84;4996335;28;24444;-78
2021/09/29 04:31:09;;;;;;;5.85;3.80;;;;;;;10.65;100.00;96148.38;4996370;28;25021;-78
2021/09/29 04:33:36;;;;;;;4.82;3.47;;;;;;;10.58;100.00;96149.63;4993594;28;24416;-78
2021/09/29 04:36:04;;;;;;;4.13;3.35;;;;;;;10.36;100.00;96150.00;4992325;28;24421;-78
2021/09/29 04:38:31;;;;;;;3.70;3.40;;;;;;;10.40;100.00;96153.25;4992807;28;24449;-78
2021/09/29 04:40:58;;;;;;;4.97;4.00;;;;;;;10.30;100.00;96155.50;4992670;28;24420;-78
2021/09/29 04:43:24;;;;;;;4.32;3.53;;;;;;;10.33;100.00;96157.09;4993056;28;24826;-78
2021/09/29 04:45:50;;;;;;;4.93;3.40;;;;;;;10.40;100.00;96164.44;4992241;28;24496;-78
2021/09/29 04:48:18;;;;;;;5.95;3.30;;;;;;;10.45;100.00;96155.59;4992296;28;24420;-78
2021/09/29 04:50:45;;;;;;;6.13;4.13;;;;;;;10.37;100.00;96167.19;4992432;28;24791;-77
2021/09/29 04:53:12;;;;;;;6.80;3.97;;;;;;;10.22;100.00;96159.41;4992099;28;24420;-78
2021/09/29 04:55:39;;;;;;;5.28;3.50;;;;;;;10.08;100.00;96161.00;4992656;28;24441;-78
2021/09/29 04:58:07;;;;;;;4.60;3.83;;;;;;;10.06;100.00;96156.84;4991969;28;24448;-77
2021/09/29 05:00:33;;;;;;;7.45;3.95;;;;;;;10.02;100.00;96161.34;4992204;28;24452;-78
2021/09/29 05:03:00;;;;;;;6.75;3.85;;;;;;;10.08;100.00;96166.19;4992625;28;24806;-78
2021/09/29 05:05:27;;;;;;;5.05;3.22;;;;;;;10.06;100.00;96168.03;4992026;28;24487;-78
2021/09/29 05:07:58;;;;;;;4.10;3.17;;;;;;;10.04;100.00;96159.50;4990879;28;24421;-76
2021/09/29 05:10:34;;;;;;;5.75;3.25;;;;;;;9.90;100.00;96159.41;4990556;28;20780;-76
2021/09/29 05:13:04;;;;;;;5.90;3.65;;;;;;;9.74;100.00;96158.56;4990883;28;24783;-76
2021/09/29 05:15:30;;;;;;;10.10;3.90;;;;;;;9.62;100.00;96153.13;4990361;28;24421;-76
2021/09/29 05:17:56;;;;;;;5.55;3.50;;;;;;;9.62;100.00;96155.72;4994564;28;24451;-78
2021/09/29 05:20:23;;;;;;;4.70;4.00;;;;;;;9.75;100.00;96157.66;4995953;28;24433;-78
2021/09/29 05:22:49;;;;;;;4.55;3.13;;;;;;;9.82;100.00;96159.81;4995416;28;24471;-78
2021/09/29 05:25:16;;;;;;;7.65;3.25;;;;;;;9.87;100.00;96162.19;4995468;28;24436;-78
2021/09/29 05:27:44;;;;;;;4.40;3.28;;;;;;;9.93;100.00;96164.44;4996464;28;24423;-78
2021/09/29 05:30:11;;;;;;;5.47;3.10;;;;;;;9.98;100.00;96152.09;4996668;28;20751;-78
2021/09/29 05:32:38;;;;;;;5.50;2.80;;;;;;;10.04;100.00;96162.09;4996593;28;24464;-78
2021/09/29 05:35:05;;;;;;;5.60;3.10;;;;;;;9.94;100.00;96171.28;4995477;28;24417;-78
2021/09/29 05:37:31;;;;;;;3.00;2.70;;;;;;;9.86;100.00;96163.94;4994884;28;24881;-77
2021/09/29 05:39:58;;;;;;;4.65;3.55;;;;;;;9.89;100.00;96165.50;4994093;28;24487;-77
2021/09/29 05:42:24;;;;;;;10.65;3.10;;;;;;;9.92;100.00;96167.94;4993488;28;24425;-74
2021/09/29 05:44:52;;;;;;;4.80;2.67;;;;;;;9.87;100.00;96164.78;4994538;28;24840;-77
2021/09/29 05:47:18;;;;;;;6.90;2.80;;;;;;;9.91;100.00;96177.47;4994826;28;21187;-78
2021/09/29 05:49:45;;;;;;;3.63;3.03;;;;;;;9.87;100.00;96178.53;4994491;28;24437;-76
2021/09/29 05:52:11;;;;;;;3.97;2.60;;;;;;;9.92;100.00;96173.13;4993573;28;24425;-77
2021/09/29 05:54:38;;;;;;;6.35;2.65;;;;;;;10.00;100.00;96177.88;4993464;28;24495;-76
2021/09/29 05:57:05;;;;;;;3.95;2.88;;;;;;;10.06;100.00;96177.56;4993498;28;24468;-76
2021/09/29 05:59:31;;;;;;;3.30;2.88;;;;;;;9.86;100.00;96183.78;4993224;28;24978;-77
2021/09/29 06:01:59;;;;;;;7.15;3.30;;;;;;;9.84;100.00;96186.47;4993640;28;20834;-77
2021/09/29 06:04:25;;;;;;;7.30;3.70;;;;;;;9.62;100.00;96191.09;4992788;28;24452;-77
2021/09/29 06:06:52;;;;;;;8.98;3.70;;;;;;;9.53;100.00;96191.56;4993388;28;20772;-77
2021/09/29 06:09:19;;;;;;;6.10;3.17;;;;;;;9.63;100.00;96190.16;4993076;28;24972;-76
2021/09/29 06:11:46;;;;;;;4.90;3.13;;;;;;;9.77;100.00;96186.88;4993191;28;20818;-76
2021/09/29 06:14:14;;;;;;;5.43;2.80;;;;;;;9.94;100.00;96190.22;4993083;28;24425;-76
2021/09/29 06:16:44;;;;;;;6.70;3.50;;;;;;;10.17;100.00;96199.34;4992758;28;20863;-76
2021/09/29 06:19:14;;;;;;;4.88;3.20;;;;;;;10.38;100.00;96196.50;4992645;28;24494;-76
2021/09/29 06:21:41;;;;;;;4.55;3.20;;;;;;;10.44;100.00;96201.38;4993220;28;20761;-77
2021/09/29 06:24:08;;;;;;;5.28;3.30;;;;;;;10.59;100.00;96213.47;4992887;28;24973;-77
2021/09/29 06:26:34;;;;;;;8.02;3.55;;;;;;;10.66;100.00;96206.19;4992652;28;24425;-76
2021/09/29 06:29:00;;;;;;;4.55;2.78;;;;;;;10.84;100.00;96205.16;4991882;28;24421;-76
2021/09/29 06:31:27;;;;;;;3.73;3.00;;;;;;;11.05;100.00;96204.81;4992511;28;24503;-76
2021/09/29 06:33:53;;;;;;;5.18;3.20;;;;;;;11.13;100.00;96205.25;4992474;28;25006;-76
2021/09/29 06:36:21;;;;;;;5.30;3.03;;;;;;;11.13;100.00;96202.66;4992486;28;24451;-76
2021/09/29 06:38:47;;;;;;;5.50;2.95;;;;;;;11.05;100.00;96203.09;4992588;28;25154;-76
2021/09/29 06:41:14;;;;;;;6.90;3.10;;;;;;;10.91;100.00;96216.00;4992329;28;24464;-76
2021/09/29 06:43:40;;;;;;;4.05;3.03;;;;;;;10.87;100.00;96217.09;4992313;28;24954;-76
2021/09/29 06:46:07;;;;;;;4.25;3.10;;;;;;;10.92;100.00;96215.06;4992063;28;24420;-76
2021/09/29 06:48:33;;;;;;;4.55;3.13;;;;;;;11.05;100.00;96217.78;4992557;28;24425;-76
2021/09/29 06:51:00;;;;;;;7.28;3.42;;;;;;;11.07;100.00;96214.19;4992422;28;24766;-76
2021/09/29 06:53:28;;;;;;;6.70;3.17;;;;;;;11.16;100.00;96218.03;4992244;28;24424;-76
2021/09/29 06:55:54;;;;;;;5.63;3.10;;;;;;;11.25;100.00;96214.06;4991987;28;24433;-76
2021/09/29 06:58:21;;;;;;;4.90;3.15;;;;;;;11.36;100.00;96212.50;4992160;28;24499;-76
2021/09/29 07:00:47;;;;;;;4.70;3.03;;;;;;;11.48;100.00;96204.91;4991978;28;24431;-76
2021/09/29 07:03:14;;;;;;;5.38;3.00;;;;;;;11.41;100.00;96212.22;4992327;28;24459;-76
2021/09/29 07:05:41;;;;;;;6.88;3.17;;;;;;;11.48;100.00;96210.94;4991922;28;24488;-76
2021/09/29 07:08:07;;;;;;;4.32;3.17;;;;;;;11.72;100.00;96210.41;4992219;28;24413;-76
2021/09/29 07:10:35;;;;;;;5.75;3.30;;;;;;;11.94;100.00;96204.75;4992102;28;24468;-76
2021/09/29 07:13:01;;;;;;;11.52;3.92;;;;;;;12.20;100.00;96201.41;4991835;28;24417;-76
2021/09/29 07:15:28;;;;;;;21.65;6.88;;;;;;;12.39;100.00;96208.06;4991477;28;24479;-76
2021/09/29 07:17:57;;;;;;;12.40;5.43;;;;;;;12.52;100.00;96201.97;4991902;28;24433;-76
2021/09/29 07:20:24;;;;;;;6.38;3.10;;;;;;;12.78;100.00;96189.91;4991785;28;24421;-76
2021/09/29 07:22:51;;;;;;;8.35;3.40;;;;;;;12.92;100.00;96201.19;4991732;28;24429;-76
2021/09/29 07:25:18;;;;;;;9.18;3.20;;;;;;;13.01;98.64;96203.16;4991433;28;24436;-76
2021/09/29 07:27:46;;;;;;;6.25;3.03;;;;;;;13.11;96.85;96198.19;4991541;28;24465;-76
2021/09/29 07:30:13;;;;;;;9.63;2.80;;;;;;;13.38;97.10;96201.59;4991527;28;24970;-76
2021/09/29 07:32:40;;;;;;;10.02;3.45;;;;;;;13.54;93.77;96209.22;4991654;28;24428;-76
2021/09/29 07:35:07;;;;;;;9.98;3.63;;;;;;;13.78;94.09;96212.72;4991289;28;24429;-76
2021/09/29 07:37:33;;;;;;;9.97;3.17;;;;;;;13.87;90.79;96205.22;4991560;28;24432;-76
2021/09/29 07:40:00;;;;;;;6.28;2.70;;;;;;;13.98;91.56;96202.75;4991404;28;24803;-76
2021/09/29 07:42:26;;;;;;;6.78;2.63;;;;;;;14.10;89.14;96201.06;4991157;28;24958;-76
2021/09/29 07:44:54;;;;;;;4.43;2.33;;;;;;;14.24;91.31;96196.53;4991101;28;24896;-76
2021/09/29 07:47:20;;;;;;;4.63;2.22;;;;;;;14.50;87.45;96199.09;4991469;28;24417;-76
2021/09/29 07:49:47;;;;;;;4.07;2.20;;;;;;;14.77;85.12;96199.69;4991305;28;24432;-76
2021/09/29 07:52:13;;;;;;;3.23;1.57;;;;;;;15.09;83.96;96198.28;4991204;28;24440;-76
2021/09/29 07:54:40;;;;;;;5.43;2.20;;;;;;;14.76;84.36;96197.22;4990970;28;24429;-77
2021/09/29 07:57:06;;;;;;;5.97;1.92;;;;;;;15.18;82.82;96192.38;4991557;28;24499;-77
2021/09/29 07:59:33;;;;;;;11.90;2.20;;;;;;;14.85;84.13;96187.88;4991433;28;24441;-76
2021/09/29 08:02:00;;;;;;;6.40;2.28;;;;;;;14.86;85.21;96187.75;4991145;28;24471;-76
2021/09/29 08:04:27;;;;;;;7.20;2.45;;;;;;;14.89;84.03;96189.31;4990900;28;24432;-76
2021/09/29 08:06:53;;;;;;;3.87;1.70;;;;;;;15.40;82.95;96184.63;4991079;28;25075;-76
2021/09/29 08:09:20;;;;;;;4.82;2.08;;;;;;;15.25;80.52;96196.22;4991083;28;24480;-76
2021/09/29 08:11:46;;;;;;;11.27;1.90;;;;;;;15.20;80.15;96193.94;4990883;28;24425;-76
2021/09/29 08:14:13;;;;;;;4.63;1.60;;;;;;;15.22;80.29;96186.81;4991149;28;24428;-76
2021/09/29 08:16:40;;;;;;;6.38;1.75;;;;;;;15.21;79.39;96198.22;4990872;28;24483;-76
2021/09/29 08:19:07;;;;;;;6.38;1.67;;;;;;;15.17;78.27;96191.56;4991124;28;24441;-77
2021/09/29 08:21:35;;;;;;;8.50;1.50;;;;;;;15.09;77.81;96196.53;4990972;28;24433;-77
2021/09/29 08:24:07;;;;;;;5.07;1.58;;;;;;;15.41;78.23;96185.44;4990848;28;24448;-76
2021/09/29 08:26:43;;;;;;;4.15;1.60;;;;;;;15.51;75.86;96183.81;4990984;28;24440;-77
2021/09/29 08:32:03;;;;;;;5.07;1.63;;;;;;;15.50;76.68;96182.16;4990384;28;24448;-77
2021/09/29 08:34:36;;;;;;;5.97;2.53;;;;;;;15.80;75.18;96180.78;4991203;28;24483;-77
2021/09/29 08:37:07;;;;;;;2.83;1.35;;;;;;;15.81;73.98;96183.28;4990970;28;24780;-77
2021/09/29 08:39:37;;;;;;;4.25;1.50;;;;;;;15.92;74.53;96190.28;4990690;28;24451;-77
2021/09/29 08:42:19;;;;;;;2.35;1.08;;;;;;;16.35;71.96;96195.59;5006569;23;24501;-78
2021/09/29 08:44:51;;;;;;;5.47;1.50;;;;;;;16.51;71.82;96200.44;4993266;28;24440;-79
2021/09/29 08:47:23;;;;;;;3.00;1.17;;;;;;;16.36;68.58;96192.03;4993601;28;24879;-78
2021/09/29 08:50:05;;;;;;;2.55;0.90;;;;;;;16.38;70.01;96191.91;4993901;28;24425;-79
2021/09/29 08:52:57;;;;;;;4.28;1.10;;;;;;;16.33;66.32;96194.88;4995929;28;24432;-78
2021/09/29 08:55:47;;;;;;;4.35;1.30;;;;;;;16.34;66.22;96200.94;4996939;28;24443;-78
2021/09/29 09:15:21;;;;;;;3.58;1.20;;;;;;;15.93;66.97;96187.53;4996832;28;24822;-78
2021/09/29 09:17:47;;;;;;;4.47;1.27;;;;;;;15.82;66.85;96184.09;4997056;28;24425;-78
2021/09/29 09:20:19;;;;;;;3.55;1.35;;;;;;;15.91;65.03;96186.00;4996888;28;24452;-78
2021/09/29 09:22:52;;;;;;;4.47;1.10;;;;;;;15.69;65.77;96190.28;4996544;28;25129;-78
2021/09/29 09:25:19;;;;;;;18.67;1.40;;;;;;;15.77;65.86;96186.25;4996777;28;24535;-78
2021/09/29 09:27:47;;;;;;;3.25;1.08;;;;;;;15.70;67.00;96189.31;4996940;28;24429;-78
2021/09/29 09:30:26;;;;;;;3.15;1.23;;;;;;;15.60;65.74;96188.31;4996537;28;24485;-78
2021/09/29 09:32:55;;;;;;;3.85;1.15;;;;;;;15.79;65.39;96184.34;4996481;28;24946;-78
2021/09/29 09:35:22;;;;;;;15.33;1.40;;;;;;;15.85;64.04;96174.25;4996084;28;24982;-78
2021/09/29 09:37:54;;;;;;;4.63;1.30;;;;;;;15.99;61.80;96178.41;4996728;28;24424;-78
2021/09/29 09:40:22;;;;;;;3.22;0.98;;;;;;;16.03;62.67;96184.22;4996138;28;24445;-78
2021/09/29 09:42:51;;;;;;;5.45;1.10;;;;;;;16.02;63.01;96169.47;4996476;28;24452;-78
2021/09/29 09:45:19;;;;;;;4.10;1.33;;;;;;;16.14;62.05;96179.81;4995914;28;24421;-78
2021/09/29 09:47:46;;;;;;;3.65;1.17;;;;;;;16.21;63.20;96172.34;4996297;28;24416;-78
2021/09/29 09:50:24;;;;;;;3.58;1.35;;;;;;;16.18;62.52;96169.97;4996529;28;24423;-78
2021/09/29 09:52:52;;;;;;;5.22;1.30;;;;;;;16.26;62.94;96170.19;4996416;28;24479;-79
2021/09/29 09:55:22;;;;;;;3.58;1.10;;;;;;;16.50;62.49;96154.34;4995762;28;24428;-78
2021/09/29 09:57:52;;;;;;;3.38;1.05;;;;;;;16.42;63.28;96160.16;4995976;28;24476;-78
2021/09/29 10:00:24;;;;;;;3.10;1.38;;;;;;;16.54;62.81;96163.59;4996203;28;24440;-78
2021/09/29 10:02:51;;;;;;;4.47;1.30;;;;;;;16.65;62.23;96154.88;4995244;28;24440;-78
2021/09/29 10:05:20;;;;;;;2.40;1.20;;;;;;;16.51;62.05;96150.75;4995776;28;24471;-78
2021/09/29 10:07:47;;;;;;;2.75;1.20;;;;;;;16.26;62.51;96156.28;4996574;28;24413;-78
2021/09/29 10:10:22;;;;;;;2.63;1.10;;;;;;;16.27;63.22;96150.91;4995871;28;24429;-78
2021/09/29 10:27:11;;;;;;;3.65;1.10;;;;;;;15.64;73.92;96161.03;4995832;28;24483;-78
2021/09/29 10:29:40;;;;;;;3.22;1.17;;;;;;;15.63;72.72;96169.81;4996005;28;24417;-78
2021/09/29 10:32:15;;;;;;;3.17;1.25;;;;;;;15.64;73.28;96163.63;4995535;28;24532;-78
2021/09/29 10:34:54;;;;;;;6.60;1.35;;;;;;;15.64;72.17;96170.63;4995736;28;24428;-78
2021/09/29 10:37:38;;;;;;;6.97;1.40;;;;;;;15.62;72.22;96168.16;4995333;28;24427;-78
2021/09/29 10:40:19;;;;;;;3.47;1.27;;;;;;;15.61;70.93;96166.50;4995104;28;24440;-78
2021/09/29 10:42:59;;;;;;;2.45;0.90;;;;;;;15.66;71.63;96161.78;4994964;28;24536;-78
2021/09/29 10:51:36;;;;;;;6.07;1.10;;;;;;;15.85;69.36;96149.91;4988356;28;24444;-78
2021/09/29 11:08:38;;;;;;;2.53;0.82;;;;;;;16.83;65.16;96142.09;4995269;28;24420;-79
2021/09/29 11:30:36;;;;;;;6.32;1.10;;;;;;;16.84;62.66;96125.47;4994125;28;24558;-78
2021/09/29 11:33:05;;;;;;;2.38;0.80;;;;;;;16.66;63.35;96125.97;4994283;28;24517;-78
2021/09/29 11:35:50;;;;;;;1.45;0.70;;;;;;;16.58;63.61;96130.19;4994371;28;24463;-79
2021/09/29 11:50:14;;;;;;;1.40;0.60;;;;;;;16.63;62.02;96121.00;4994743;28;24400;-78
2021/09/29 12:09:05;;;;;;;2.60;0.68;;;;;;;16.61;63.38;96102.00;4994066;28;24989;-78
2021/09/29 12:11:40;;;;;;;3.80;0.90;;;;;;;16.62;62.95;96105.44;4994416;28;24429;-78
2021/09/29 12:14:14;;;;;;;2.43;1.00;;;;;;;16.59;63.55;96101.28;4994260;28;24437;-78
2021/09/29 12:16:40;;;;;;;4.10;0.75;;;;;;;16.64;63.49;96106.13;4993986;28;24432;-78
2021/09/29 12:19:10;;;;;;;1.58;0.80;;;;;;;16.67;63.96;96109.31;4993850;28;24860;-78
2021/09/29 12:21:42;;;;;;;1.90;0.75;;;;;;;16.66;63.35;96101.63;4993332;28;24429;-78
2021/09/29 12:24:10;;;;;;;2.30;0.88;;;;;;;16.54;63.51;96108.69;4994232;28;24548;-78
2021/09/29 12:26:42;;;;;;;2.20;0.88;;;;;;;16.41;63.65;96105.38;4994672;28;24523;-78
2021/09/29 12:29:25;;;;;;;3.08;1.02;;;;;;;16.32;64.50;96108.75;4997784;28;24447;-78
2021/09/29 12:32:03;;;;;;;4.95;0.98;;;;;;;16.26;64.88;96123.13;4997777;28;24798;-78
2021/09/29 12:34:45;;;;;;;2.25;0.90;;;;;;;16.53;65.30;96107.00;4997611;28;24437;-78
2021/09/29 12:37:14;;;;;;;3.53;1.00;;;;;;;16.79;65.08;96114.53;4997944;28;24872;-78
2021/09/29 12:39:42;;;;;;;1.52;0.80;;;;;;;16.72;65.24;96118.56;4997481;28;24455;-78
2021/09/29 12:42:09;;;;;;;4.07;1.10;;;;;;;16.64;67.71;96125.25;4997797;28;24567;-78
2021/09/29 12:44:49;;;;;;;4.43;0.90;;;;;;;16.67;68.12;96122.41;4997321;28;24417;-78
2021/09/29 12:47:21;;;;;;;4.93;1.00;;;;;;;16.51;68.52;96124.63;4997676;28;24432;-78
2021/09/29 12:49:48;;;;;;;3.10;1.02;;;;;;;16.53;68.58;96117.47;4997923;28;24436;-78
2021/09/29 12:52:29;;;;;;;5.85;1.13;;;;;;;16.23;70.24;96122.53;4997728;28;24464;-78
2021/09/29 12:54:57;;;;;;;8.70;1.23;;;;;;;16.16;74.84;96125.63;4997478;28;24425;-78
2021/09/29 12:57:27;;;;;;;2.50;0.98;;;;;;;15.91;79.54;96136.38;4997516;28;24433;-78
2021/09/29 12:59:53;;;;;;;2.65;1.00;;;;;;;15.63;82.49;96137.66;4996869;28;24480;-79
2021/09/29 13:02:20;;;;;;;4.00;1.00;;;;;;;15.39;85.01;96143.81;4997657;28;24436;-79
2021/09/29 13:04:46;;;;;;;2.53;0.95;;;;;;;15.25;87.74;96144.03;4996803;28;24429;-79
2021/09/29 13:07:13;;;;;;;3.55;1.27;;;;;;;15.34;90.45;96150.31;4997806;28;24420;-78
2021/09/29 13:09:40;;;;;;;4.13;0.98;;;;;;;15.11;92.53;96162.47;4997575;28;24448;-78
2021/09/29 13:12:08;;;;;;;2.67;0.82;;;;;;;15.06;90.21;96165.44;4997273;28;24977;-78
2021/09/29 13:14:34;;;;;;;4.22;1.25;;;;;;;14.93;91.09;96177.72;4996487;28;24425;-78
2021/09/29 13:17:00;;;;;;;2.88;1.10;;;;;;;14.91;93.30;96188.28;4997234;28;24436;-78